Time;durP1;ratioP1;P1;durP2;ratioP2;P2;SDS_P1;SDS_P2;PMS_P1;PMS_P2;Temp;Humidity;BMP_temperature;BMP_pressure;BME280_temperature;BME280_humidity;BME280_pressure;Samples;Min_cycle;Max_cycle;Signal;HPM_P1;HPM_P2
2022/06/09 00:02:04;;;;;;;6.35;2.92;;;15.80;99.90;;;;;;5052627;28;20115;-42
2022/06/09 00:04:39;;;;;;;6.47;3.10;;;15.80;99.90;;;;;;5052414;28;20126;-45
2022/06/09 00:07:14;;;;;;;5.75;3.40;;;15.80;99.90;;;;;;5052140;28;20485;-47
2022/06/09 00:09:44;;;;;;;6.05;3.50;;;15.70;99.90;;;;;;5052122;28;20028;-43
2022/06/09 00:12:10;;;;;;;3.10;2.80;;;15.70;99.90;;;;;;5051023;28;20082;-44
2022/06/09 00:14:37;;;;;;;5.75;3.60;;;15.70;99.90;;;;;;5052143;28;20550;-50
2022/06/09 00:17:03;;;;;;;7.97;3.50;;;15.70;99.90;;;;;;5051209;28;20035;-45
2022/06/09 00:19:29;;;;;;;4.07;3.40;;;15.70;99.90;;;;;;5052383;28;20100;-45
2022/06/09 00:21:55;;;;;;;7.32;3.97;;;15.70;99.90;;;;;;5052464;28;20064;-43
2022/06/09 00:24:21;;;;;;;6.05;3.53;;;15.60;99.90;;;;;;5051950;28;20396;-45
2022/06/09 00:26:47;;;;;;;6.30;3.75;;;15.60;99.90;;;;;;5051917;28;20508;-45
2022/06/09 00:29:12;;;;;;;7.15;3.75;;;15.50;99.90;;;;;;5051939;28;20032;-45
2022/06/09 00:31:38;;;;;;;5.25;3.72;;;15.50;99.90;;;;;;5051818;28;20030;-44
2022/06/09 00:34:04;;;;;;;8.32;3.28;;;15.50;99.90;;;;;;5051807;28;20075;-46
2022/06/09 00:36:29;;;;;;;7.60;3.00;;;15.50;99.90;;;;;;5051828;28;20025;-45
2022/06/09 00:38:57;;;;;;;7.78;3.30;;;15.40;99.90;;;;;;5051862;28;20025;-44
2022/06/09 00:41:26;;;;;;;5.20;3.20;;;15.40;99.90;;;;;;5051883;28;20025;-47
2022/06/09 00:43:52;;;;;;;8.35;2.85;;;15.40;99.90;;;;;;5051712;28;20017;-44
2022/06/09 00:46:31;;;;;;;5.00;2.75;;;15.30;99.90;;;;;;5051469;28;20071;-44
2022/06/09 00:49:04;;;;;;;8.75;2.80;;;15.30;99.90;;;;;;5050938;28;20123;-48
2022/06/09 00:51:39;;;;;;;8.18;2.65;;;15.30;99.90;;;;;;5051688;28;20056;-44
2022/06/09 00:54:10;;;;;;;7.15;2.83;;;15.30;99.90;;;;;;5051237;28;20108;-44
2022/06/09 00:56:40;;;;;;;7.45;2.50;;;15.30;99.90;;;;;;5051604;28;20069;-44
2022/06/09 00:59:06;;;;;;;4.90;2.15;;;15.30;99.90;;;;;;5051003;28;20025;-44
2022/06/09 01:01:33;;;;;;;7.70;1.85;;;15.30;99.90;;;;;;5051202;28;20021;-46
2022/06/09 01:04:05;;;;;;;5.82;1.98;;;15.30;99.90;;;;;;5051338;28;20108;-44
2022/06/09 01:06:40;;;;;;;4.38;1.85;;;15.30;99.90;;;;;;5051507;28;20028;-43
2022/06/09 01:09:10;;;;;;;4.00;2.15;;;15.30;99.90;;;;;;5051014;28;20025;-49
2022/06/09 01:11:36;;;;;;;6.82;2.13;;;15.30;99.90;;;;;;5051145;28;20123;-50
2022/06/09 01:14:03;;;;;;;2.95;1.65;;;15.30;99.90;;;;;;5051095;28;20548;-43
2022/06/09 01:16:55;;;;;;;2.42;2.00;;;15.20;99.90;;;;;;5051393;28;20052;-46
2022/06/09 01:20:04;;;;;;;2.45;1.63;;;15.20;99.90;;;;;;5051576;28;20029;-48
2022/06/09 01:22:58;;;;;;;3.15;2.72;;;15.00;99.90;;;;;;5051169;28;20064;-44
2022/06/09 01:26:03;;;;;;;3.33;1.85;;;15.00;99.90;;;;;;5051058;28;20075;-44
2022/06/09 01:28:50;;;;;;;11.43;3.08;;;14.90;99.90;;;;;;5051042;28;20438;-46
2022/06/09 01:31:21;;;;;;;2.78;2.25;;;14.80;99.90;;;;;;5051271;28;20041;-43
2022/06/09 01:34:05;;;;;;;2.88;1.88;;;14.80;99.90;;;;;;5051269;28;20047;-44
2022/06/09 01:36:37;;;;;;;5.97;2.00;;;14.80;99.90;;;;;;5051253;28;20179;-46
2022/06/09 01:39:05;;;;;;;2.92;1.92;;;14.70;99.90;;;;;;5050494;28;20074;-42
2022/06/09 01:41:31;;;;;;;3.25;2.10;;;14.70;99.90;;;;;;5067006;28;20021;-44
2022/06/09 01:43:57;;;;;;;6.30;1.95;;;14.60;99.90;;;;;;5051007;28;20426;-44
2022/06/09 01:46:36;;;;;;;3.95;2.10;;;14.50;99.90;;;;;;5050970;28;20118;-40
2022/06/09 01:49:08;;;;;;;2.40;1.88;;;14.50;99.90;;;;;;5050608;28;20025;-44
2022/06/09 01:51:37;;;;;;;7.43;1.98;;;14.50;99.90;;;;;;5051082;28;20029;-43
2022/06/09 01:54:14;;;;;;;11.38;3.03;;;14.50;99.90;;;;;;5050973;28;20086;-44
2022/06/09 01:56:49;;;;;;;4.88;2.03;;;14.50;99.90;;;;;;5050771;28;20040;-49
2022/06/09 01:59:39;;;;;;;4.35;1.90;;;14.40;99.90;;;;;;5052792;28;20091;-45
2022/06/09 02:02:13;;;;;;;11.38;2.10;;;14.40;99.90;;;;;;5054969;28;20029;-48
2022/06/09 02:04:47;;;;;;;3.17;1.83;;;14.30;99.90;;;;;;5054755;28;20362;-43
2022/06/09 02:07:14;;;;;;;11.70;3.92;;;14.30;99.90;;;;;;5054040;28;20037;-50
2022/06/09 02:09:40;;;;;;;9.15;2.30;;;14.30;99.90;;;;;;5054558;28;20021;-45
2022/06/09 02:12:10;;;;;;;3.50;1.88;;;14.30;99.90;;;;;;5054464;28;20031;-44
2022/06/09 02:14:37;;;;;;;4.57;1.67;;;14.30;99.90;;;;;;5054362;28;20071;-46
2022/06/09 02:17:05;;;;;;;4.25;1.92;;;14.20;99.90;;;;;;5053447;28;20039;-48
2022/06/09 02:19:31;;;;;;;7.70;1.85;;;14.20;99.90;;;;;;5054224;28;20524;-44
2022/06/09 02:21:57;;;;;;;2.22;1.70;;;14.10;99.90;;;;;;5054078;28;20278;-43
2022/06/09 02:24:23;;;;;;;3.55;2.13;;;14.00;99.90;;;;;;5054246;28;20024;-45
2022/06/09 02:26:48;;;;;;;5.07;2.10;;;14.00;99.90;;;;;;5054009;28;20040;-50
2022/06/09 02:29:14;;;;;;;7.65;2.58;;;14.00;99.90;;;;;;5054091;28;20472;-46
2022/06/09 02:31:40;;;;;;;6.50;2.05;;;14.00;99.90;;;;;;5053808;28;20036;-47
2022/06/09 02:34:06;;;;;;;3.47;1.80;;;14.00;99.90;;;;;;5053891;28;20053;-48
2022/06/09 02:36:32;;;;;;;8.10;1.90;;;13.90;99.90;;;;;;5053980;28;20059;-48
2022/06/09 02:38:57;;;;;;;11.82;2.30;;;13.90;99.90;;;;;;5053524;28;20104;-47
2022/06/09 02:41:23;;;;;;;7.97;2.20;;;13.80;99.90;;;;;;5054082;28;20040;-41
2022/06/09 02:43:48;;;;;;;5.80;2.10;;;13.80;99.90;;;;;;5053894;28;20025;-48
2022/06/09 02:46:14;;;;;;;13.00;2.13;;;13.80;99.90;;;;;;5053876;28;20029;-44
2022/06/09 02:48:40;;;;;;;6.03;2.28;;;13.90;99.90;;;;;;5051714;28;20029;-45
2022/06/09 02:51:16;;;;;;;2.75;1.77;;;13.90;99.90;;;;;;5053869;28;20029;-43
2022/06/09 02:53:42;;;;;;;9.57;1.88;;;13.90;99.90;;;;;;5053780;28;20017;-43
2022/06/09 02:56:07;;;;;;;8.90;2.33;;;13.90;99.90;;;;;;5053807;28;20051;-43
2022/06/09 02:58:33;;;;;;;5.05;2.30;;;13.90;99.90;;;;;;5053024;28;20468;-50
2022/06/09 03:00:58;;;;;;;6.78;1.98;;;13.90;99.90;;;;;;5053537;28;20033;-45
2022/06/09 03:03:24;;;;;;;4.13;1.88;;;13.90;99.90;;;;;;5053281;28;20504;-46
2022/06/09 03:05:49;;;;;;;5.78;2.00;;;13.90;99.90;;;;;;5053497;28;20025;-47
2022/06/09 03:08:15;;;;;;;6.13;2.03;;;13.80;99.90;;;;;;5052832;28;20108;-46
2022/06/09 03:10:41;;;;;;;2.00;1.80;;;13.80;99.90;;;;;;5052865;28;20032;-43
2022/06/09 03:13:06;;;;;;;4.93;1.75;;;13.70;99.90;;;;;;5053239;28;20017;-46
2022/06/09 03:15:33;;;;;;;5.93;1.98;;;13.70;99.90;;;;;;5052841;28;20044;-46
2022/06/09 03:17:58;;;;;;;7.45;1.90;;;13.70;99.90;;;;;;5052933;28;20025;-46
2022/06/09 03:20:27;;;;;;;4.10;1.88;;;13.70;99.90;;;;;;5053203;28;20123;-49
2022/06/09 03:22:53;;;;;;;5.35;2.10;;;13.60;99.90;;;;;;5052754;28;20025;-46
2022/06/09 03:25:19;;;;;;;5.55;1.80;;;13.70;99.90;;;;;;5053167;28;20366;-43
2022/06/09 03:27:44;;;;;;;5.07;1.88;;;13.70;99.90;;;;;;5053015;28;20036;-44
2022/06/09 03:30:11;;;;;;;3.63;2.10;;;13.70;99.90;;;;;;5053111;28;20024;-45
2022/06/09 03:32:36;;;;;;;5.28;1.88;;;13.60;99.90;;;;;;5052602;28;20055;-44
2022/06/09 03:35:02;;;;;;;4.68;1.83;;;13.60;99.90;;;;;;5053065;28;20128;-44
2022/06/09 03:37:28;;;;;;;3.85;2.05;;;13.60;99.90;;;;;;5052487;28;20025;-44
2022/06/09 03:39:53;;;;;;;2.05;1.55;;;13.60;99.90;;;;;;5052933;28;20104;-46
2022/06/09 03:42:19;;;;;;;8.50;2.47;;;13.60;99.90;;;;;;5052399;28;20480;-46
2022/06/09 03:44:46;;;;;;;7.28;1.88;;;13.60;99.90;;;;;;5052589;28;20032;-44
2022/06/09 03:47:11;;;;;;;4.35;1.80;;;13.60;99.90;;;;;;5052325;28;20277;-46
2022/06/09 03:49:37;;;;;;;6.55;2.15;;;13.60;99.90;;;;;;5052817;28;20035;-46
2022/06/09 03:52:03;;;;;;;6.78;2.25;;;13.60;99.90;;;;;;5052784;28;20029;-44
2022/06/09 03:54:29;;;;;;;10.45;2.15;;;13.60;99.90;;;;;;5052881;28;20651;-47
2022/06/09 03:56:55;;;;;;;4.88;2.10;;;13.60;99.90;;;;;;5051814;28;20036;-43
2022/06/09 03:59:20;;;;;;;5.68;1.90;;;13.50;99.90;;;;;;5049566;28;20021;-44
2022/06/09 04:01:46;;;;;;;4.25;2.30;;;13.60;99.90;;;;;;5069491;28;20465;-44
2022/06/09 04:04:12;;;;;;;4.88;2.03;;;13.60;99.90;;;;;;5072251;28;20544;-43
2022/06/09 04:06:37;;;;;;;4.30;1.83;;;13.60;99.90;;;;;;5044296;28;20048;-45
2022/06/09 04:09:04;;;;;;;3.72;1.75;;;13.60;99.90;;;;;;5051665;28;20049;-47
2022/06/09 04:11:30;;;;;;;4.43;1.70;;;13.70;99.90;;;;;;5052088;28;20029;-48
2022/06/09 04:13:55;;;;;;;6.68;2.10;;;13.70;99.90;;;;;;5051445;28;20024;-46
2022/06/09 04:16:25;;;;;;;8.75;2.10;;;13.80;99.90;;;;;;5032709;28;20093;-46
2022/06/09 04:18:52;;;;;;;3.72;2.00;;;13.90;99.90;;;;;;5031346;28;20079;-43
2022/06/09 04:21:18;;;;;;;7.38;2.47;;;14.00;99.90;;;;;;5032010;28;20371;-44
2022/06/09 04:23:43;;;;;;;6.00;1.90;;;14.10;99.90;;;;;;5031190;28;20402;-43
2022/06/09 04:26:17;;;;;;;2.38;1.70;;;14.20;99.90;;;;;;5032034;28;20120;-47
2022/06/09 04:28:43;;;;;;;6.30;1.80;;;14.30;99.90;;;;;;5031673;28;20473;-45
2022/06/09 04:31:10;;;;;;;11.10;2.00;;;14.30;99.90;;;;;;5033325;28;20413;-47
2022/06/09 04:33:36;;;;;;;2.75;1.70;;;14.30;99.90;;;;;;5051702;28;20021;-43
2022/06/09 04:36:02;;;;;;;6.82;1.75;;;14.40;99.90;;;;;;5047291;28;20386;-43
2022/06/09 04:38:28;;;;;;;5.05;2.05;;;14.50;99.90;;;;;;5042126;28;20029;-44
2022/06/09 04:40:54;;;;;;;4.70;1.63;;;14.60;99.90;;;;;;5065300;28;20051;-48
2022/06/09 04:43:20;;;;;;;6.75;1.80;;;14.60;99.90;;;;;;5068163;28;20109;-48
2022/06/09 04:45:46;;;;;;;6.03;2.45;;;14.70;99.90;;;;;;5086982;22;20049;-47
2022/06/09 04:48:12;;;;;;;4.43;1.50;;;14.90;99.90;;;;;;5079331;28;20021;-47
2022/06/09 04:50:40;;;;;;;8.35;1.67;;;15.10;99.90;;;;;;5082109;28;20082;-49
2022/06/09 04:53:07;;;;;;;7.88;1.50;;;15.60;99.90;;;;;;5083393;28;20423;-47
2022/06/09 04:55:33;;;;;;;4.38;1.50;;;16.10;99.90;;;;;;5082520;28;20031;-50
2022/06/09 04:57:59;;;;;;;3.72;1.50;;;16.70;99.90;;;;;;5083252;28;20480;-47
2022/06/09 05:00:26;;;;;;;5.65;1.50;;;17.40;99.90;;;;;;5054406;28;20029;-45
2022/06/09 05:02:52;;;;;;;7.82;2.00;;;18.40;99.90;;;;;;5079148;28;20029;-45
2022/06/09 05:05:26;;;;;;;7.18;1.10;;;19.10;99.90;;;;;;5078780;28;20017;-45
2022/06/09 05:07:52;;;;;;;3.58;1.23;;;19.80;99.90;;;;;;5061394;28;20061;-45
2022/06/09 05:10:18;;;;;;;10.77;2.30;;;20.60;99.90;;;;;;5062990;28;20083;-45
2022/06/09 05:12:43;;;;;;;4.93;1.02;;;21.30;99.90;;;;;;5063766;28;20032;-45
2022/06/09 05:15:14;;;;;;;1.73;1.13;;;22.00;99.90;;;;;;5064492;28;20033;-49
2022/06/09 05:17:40;;;;;;;3.05;1.10;;;22.30;99.20;;;;;;5069333;28;20025;-53
2022/06/09 05:20:06;;;;;;;5.15;1.45;;;22.70;98.80;;;;;;5081483;28;20492;-50
2022/06/09 05:22:32;;;;;;;5.43;1.40;;;23.50;97.70;;;;;;5052659;28;20036;-50
2022/06/09 05:24:59;;;;;;;6.50;1.30;;;23.70;97.00;;;;;;5082239;28;20024;-48
2022/06/09 05:27:25;;;;;;;4.18;1.20;;;23.60;97.40;;;;;;5071911;28;20055;-48
2022/06/09 05:29:51;;;;;;;7.82;1.15;;;23.70;96.80;;;;;;5062608;28;20051;-51
2022/06/09 05:32:16;;;;;;;4.20;1.00;;;24.00;96.00;;;;;;5062394;28;20084;-47
2022/06/09 05:34:42;;;;;;;4.68;1.15;;;24.50;95.20;;;;;;5062800;28;20036;-48
2022/06/09 05:37:07;;;;;;;4.38;1.17;;;24.90;94.80;;;;;;5077070;28;20727;-47
2022/06/09 05:45:21;;;;;;;2.78;0.80;;;25.30;93.60;;;;;;5040491;28;20191;-47
2022/06/09 05:47:47;;;;;;;6.28;1.10;;;25.70;92.80;;;;;;5040478;28;20097;-46
2022/06/09 05:50:12;;;;;;;6.25;1.23;;;26.00;92.10;;;;;;5059020;28;20045;-48
2022/06/09 05:52:38;;;;;;;6.55;1.23;;;26.10;91.60;;;;;;5053676;28;20032;-49
2022/06/09 05:55:04;;;;;;;5.30;1.10;;;25.80;91.70;;;;;;5080729;28;20380;-44
2022/06/09 05:57:31;;;;;;;2.83;1.13;;;25.60;91.30;;;;;;5061396;28;20116;-47
2022/06/09 05:59:56;;;;;;;4.45;1.10;;;25.50;91.50;;;;;;5058745;28;20021;-46
2022/06/09 06:02:25;;;;;;;14.05;1.30;;;25.30;91.90;;;;;;5076476;28;20039;-50
2022/06/09 06:04:52;;;;;;;7.63;1.50;;;25.30;91.70;;;;;;5059173;28;20036;-51
2022/06/09 06:07:18;;;;;;;9.07;1.05;;;25.10;91.50;;;;;;5047380;28;20036;-47
2022/06/09 06:09:44;;;;;;;2.63;0.90;;;25.00;91.70;;;;;;5041991;28;20021;-50
2022/06/09 06:12:10;;;;;;;5.28;1.25;;;25.30;91.50;;;;;;5052754;28;20064;-50
2022/06/09 06:14:36;;;;;;;6.55;1.60;;;25.60;91.00;;;;;;5064630;28;20047;-48
2022/06/09 06:17:02;;;;;;;5.72;1.50;;;25.40;90.90;;;;;;5081609;28;20025;-45
2022/06/09 06:19:28;;;;;;;3.38;1.40;;;25.40;90.90;;;;;;5059651;28;20045;-51
2022/06/09 06:21:54;;;;;;;6.63;1.17;;;25.40;91.30;;;;;;5044217;28;20088;-51
2022/06/09 06:24:24;;;;;;;4.50;1.15;;;26.10;90.90;;;;;;5047433;28;20103;-47
2022/06/09 06:26:49;;;;;;;5.25;1.67;;;26.90;90.30;;;;;;5054038;28;20025;-46
2022/06/09 06:29:19;;;;;;;5.68;1.17;;;27.50;88.10;;;;;;5053841;28;20040;-47
2022/06/09 06:31:45;;;;;;;5.95;1.25;;;28.10;86.70;;;;;;5049131;28;20021;-48
2022/06/09 06:34:11;;;;;;;5.28;1.40;;;28.00;85.90;;;;;;5055702;28;20021;-44
2022/06/09 06:36:36;;;;;;;3.95;1.42;;;27.60;86.20;;;;;;5079649;28;20031;-47
2022/06/09 06:39:03;;;;;;;4.70;1.42;;;27.10;87.50;;;;;;5063785;28;20523;-45
2022/06/09 06:41:30;;;;;;;6.13;1.30;;;26.00;86.50;;;;;;5048601;28;20029;-46
2022/06/09 06:43:56;;;;;;;5.65;1.48;;;25.30;88.90;;;;;;5046945;28;20130;-47
2022/06/09 06:46:22;;;;;;;5.32;1.20;;;25.10;90.00;;;;;;5069889;28;20043;-49
2022/06/09 06:48:47;;;;;;;6.28;1.50;;;25.20;89.50;;;;;;5075483;28;20029;-46
2022/06/09 06:51:13;;;;;;;5.93;1.50;;;25.80;90.00;;;;;;5056501;28;20079;-46
2022/06/09 06:53:39;;;;;;;6.47;1.40;;;26.30;87.80;;;;;;5056580;28;20041;-44
2022/06/09 06:56:06;;;;;;;6.82;1.30;;;25.70;87.90;;;;;;5055581;28;20029;-47
2022/06/09 06:58:31;;;;;;;5.00;1.45;;;25.00;89.80;;;;;;5054671;28;20447;-47
2022/06/09 07:00:58;;;;;;;3.83;1.48;;;24.40;91.30;;;;;;5054852;28;20021;-47
2022/06/09 07:03:24;;;;;;;4.28;1.25;;;24.10;91.30;;;;;;5073436;28;20112;-44
2022/06/09 07:05:50;;;;;;;2.90;1.23;;;23.90;91.50;;;;;;5075815;28;20031;-47
2022/06/09 07:08:16;;;;;;;6.72;1.33;;;23.20;92.50;;;;;;5075520;28;20581;-47
2022/06/09 07:10:43;;;;;;;6.57;2.00;;;22.60;93.30;;;;;;5074862;28;20074;-43
2022/06/09 07:13:09;;;;;;;4.75;1.50;;;21.80;94.50;;;;;;5073630;28;20031;-47
2022/06/09 07:15:35;;;;;;;6.40;1.45;;;21.10;96.10;;;;;;5073709;28;20016;-43
2022/06/09 07:18:00;;;;;;;5.50;1.40;;;20.80;96.60;;;;;;5073010;28;20502;-44
2022/06/09 07:20:26;;;;;;;24.40;13.18;;;20.40;96.80;;;;;;5073767;28;20463;-48
2022/06/09 07:22:52;;;;;;;9.95;3.08;;;19.90;98.00;;;;;;5073752;28;20025;-43
2022/06/09 07:25:19;;;;;;;8.60;2.97;;;19.50;99.10;;;;;;5073373;28;20395;-46
2022/06/09 07:27:47;;;;;;;7.80;1.70;;;19.20;99.90;;;;;;5063084;28;20075;-47
2022/06/09 07:30:13;;;;;;;6.30;1.88;;;19.10;99.90;;;;;;5061012;28;20082;-42
2022/06/09 07:32:40;;;;;;;8.35;1.90;;;18.80;99.90;;;;;;5050126;28;20040;-42
2022/06/09 07:35:06;;;;;;;6.88;1.90;;;18.60;99.90;;;;;;5067603;28;20020;-43
2022/06/09 07:37:32;;;;;;;5.07;1.75;;;18.40;99.90;;;;;;5061046;28;20033;-43
2022/06/09 07:39:57;;;;;;;5.18;1.83;;;18.40;99.90;;;;;;5073096;28;20031;-42
2022/06/09 07:42:23;;;;;;;7.50;1.98;;;18.20;99.90;;;;;;5051768;28;20231;-47
2022/06/09 07:44:49;;;;;;;6.30;1.70;;;18.00;99.90;;;;;;5039567;28;20473;-41
2022/06/09 07:47:15;;;;;;;10.13;1.77;;;18.00;99.90;;;;;;5032032;28;20110;-41
2022/06/09 07:49:40;;;;;;;3.85;1.63;;;18.00;99.90;;;;;;5032295;28;20409;-45
2022/06/09 07:52:06;;;;;;;7.40;2.30;;;18.00;99.90;;;;;;5033093;28;20065;-44
2022/06/09 07:54:31;;;;;;;8.88;2.28;;;17.90;99.90;;;;;;5033017;28;20034;-41
2022/06/09 07:56:57;;;;;;;11.25;2.25;;;17.90;99.90;;;;;;5031597;28;20457;-43
2022/06/09 07:59:23;;;;;;;6.60;2.15;;;17.80;99.90;;;;;;5033729;28;20057;-41
2022/06/09 08:01:48;;;;;;;6.88;1.83;;;17.60;99.90;;;;;;5032997;28;20025;-43
2022/06/09 08:04:15;;;;;;;9.80;1.80;;;17.70;99.90;;;;;;5033620;28;20033;-41
2022/06/09 08:06:40;;;;;;;4.45;2.20;;;17.70;99.90;;;;;;5033561;28;20104;-40
2022/06/09 08:09:06;;;;;;;7.85;1.83;;;17.60;99.90;;;;;;5033340;28;20105;-42
2022/06/09 08:11:37;;;;;;;13.95;3.35;;;17.60;99.90;;;;;;5033090;28;20392;-40
2022/06/09 08:14:04;;;;;;;6.72;2.33;;;17.60;99.90;;;;;;5032847;28;20026;-41
2022/06/09 08:16:31;;;;;;;4.55;1.80;;;17.60;99.90;;;;;;5032858;28;20031;-44
2022/06/09 08:18:57;;;;;;;6.97;2.13;;;17.70;99.90;;;;;;5032775;28;20053;-41
2022/06/09 08:21:23;;;;;;;2.70;1.30;;;17.90;99.90;;;;;;5033324;28;20436;-41
2022/06/09 08:23:49;;;;;;;7.97;2.00;;;18.00;99.90;;;;;;5033239;28;20021;-41
2022/06/09 08:26:15;;;;;;;14.05;2.72;;;18.20;99.90;;;;;;5033579;28;20477;-41
2022/06/09 08:28:40;;;;;;;7.13;1.80;;;18.30;99.90;;;;;;5033523;28;20045;-43
2022/06/09 08:31:06;;;;;;;6.07;2.33;;;18.50;99.90;;;;;;5033231;28;20396;-44
2022/06/09 08:33:31;;;;;;;7.63;1.85;;;18.80;99.90;;;;;;5033837;28;20022;-40
2022/06/09 08:35:57;;;;;;;4.53;1.42;;;19.40;99.90;;;;;;5033799;28;20033;-41
2022/06/09 08:38:23;;;;;;;7.07;1.73;;;19.60;99.90;;;;;;5035308;28;20100;-42
2022/06/09 08:41:17;;;;;;;7.75;2.47;;;19.70;99.90;;;;;;5034146;28;20021;-41
2022/06/09 08:43:46;;;;;;;4.45;2.25;;;19.60;99.90;;;;;;5033903;28;20021;-43
2022/06/09 08:46:40;;;;;;;8.70;1.85;;;19.60;99.90;;;;;;5033192;28;20041;-41
2022/06/09 08:49:22;;;;;;;8.65;2.25;;;19.60;99.90;;;;;;5033943;28;20026;-42
2022/06/09 08:51:50;;;;;;;6.88;2.22;;;19.40;99.90;;;;;;5034423;28;20037;-42
2022/06/09 08:54:23;;;;;;;5.63;1.75;;;19.40;99.90;;;;;;5033770;28;20029;-41
2022/06/09 08:56:49;;;;;;;7.68;1.95;;;19.20;99.90;;;;;;5032528;28;20053;-41
2022/06/09 08:59:19;;;;;;;10.13;2.35;;;19.10;99.90;;;;;;5033142;28;20235;-42
2022/06/09 09:01:48;;;;;;;15.00;2.35;;;18.90;99.90;;;;;;5032530;28;20469;-40
2022/06/09 09:04:22;;;;;;;8.30;2.55;;;18.90;99.90;;;;;;5032783;28;20036;-40
2022/06/09 09:06:56;;;;;;;6.05;2.03;;;18.70;99.90;;;;;;5032821;28;20021;-42
2022/06/09 09:09:25;;;;;;;6.93;1.75;;;18.60;99.90;;;;;;5032689;28;20034;-41
2022/06/09 09:12:07;;;;;;;7.30;1.80;;;18.40;99.90;;;;;;5033177;28;20033;-43
2022/06/09 09:14:51;;;;;;;6.32;2.00;;;18.40;99.90;;;;;;5032105;28;20048;-43
2022/06/09 09:17:48;;;;;;;8.70;1.65;;;18.40;99.90;;;;;;5032483;28;20392;-43
2022/06/09 09:20:16;;;;;;;5.03;2.20;;;18.20;99.90;;;;;;5032856;28;20025;-42
2022/06/09 09:23:02;;;;;;;8.77;2.00;;;18.20;99.90;;;;;;5032372;28;20026;-41
2022/06/09 09:25:44;;;;;;;7.43;2.40;;;18.30;99.90;;;;;;5032543;28;20018;-41
2022/06/09 09:28:18;;;;;;;5.45;1.98;;;18.30;99.90;;;;;;5032337;28;20026;-41
2022/06/09 09:31:28;;;;;;;8.93;2.05;;;18.30;99.90;;;;;;5032487;28;20397;-43
2022/06/09 09:33:56;;;;;;;4.60;1.67;;;18.40;99.90;;;;;;4971265;28;20407;-42
2022/06/09 09:36:26;;;;;;;3.72;1.52;;;18.80;99.90;;;;;;4970557;28;20039;-42
2022/06/09 09:39:20;;;;;;;5.68;1.52;;;18.90;99.90;;;;;;5002232;28;20030;-43
2022/06/09 09:41:46;;;;;;;5.85;1.42;;;19.10;99.90;;;;;;5032014;28;20055;-46
2022/06/09 09:44:22;;;;;;;3.90;1.55;;;19.20;99.90;;;;;;5031987;28;20026;-44
2022/06/09 09:46:57;;;;;;;7.85;1.60;;;19.40;99.90;;;;;;5031966;28;20194;-41
2022/06/09 09:49:29;;;;;;;10.90;1.33;;;19.90;99.90;;;;;;5032051;28;20225;-42
2022/06/09 09:51:56;;;;;;;5.85;1.27;;;19.90;99.90;;;;;;5032016;28;20465;-42
2022/06/09 09:54:31;;;;;;;2.45;1.10;;;19.90;99.90;;;;;;5031914;28;20758;-45
2022/06/09 09:57:18;;;;;;;5.37;1.50;;;19.70;99.90;;;;;;5032893;28;20041;-44
2022/06/09 09:59:53;;;;;;;8.65;1.48;;;19.60;99.90;;;;;;5031621;28;20767;-39
2022/06/09 10:08:35;;;;;;;6.75;1.63;;;19.90;99.90;;;;;;5032153;28;20073;-41
2022/06/09 10:11:53;;;;;;;5.03;1.50;;;20.10;99.90;;;;;;5032394;28;20022;-41
2022/06/09 10:13:50;;;;;;;3.13;1.48;;;20.20;99.90;;;;;;5040232;28;20029;-41
2022/06/09 10:16:16;;;;;;;11.05;3.42;;;20.10;99.90;;;;;;5059008;28;20066;-43
2022/06/09 10:18:50;;;;;;;3.92;1.48;;;20.20;99.90;;;;;;5071088;28;20125;-49
2022/06/09 10:21:15;;;;;;;3.50;1.30;;;20.00;99.90;;;;;;5056265;28;20032;-42
2022/06/09 10:23:46;;;;;;;4.78;1.65;;;19.70;99.90;;;;;;5055673;28;20025;-42
2022/06/09 10:26:15;;;;;;;5.47;1.70;;;19.30;99.90;;;;;;5053125;28;20052;-45
2022/06/09 10:29:04;;;;;;;4.93;1.55;;;19.00;99.90;;;;;;5054003;28;20037;-43
2022/06/09 10:31:46;;;;;;;4.15;1.45;;;18.90;99.90;;;;;;5054565;28;20039;-43
2022/06/09 10:34:56;;;;;;;4.25;1.60;;;18.80;99.90;;;;;;5074574;28;20021;-44
2022/06/09 10:37:46;;;;;;;7.97;2.10;;;18.90;99.90;;;;;;5000726;28;20078;-45
2022/06/09 10:40:22;;;;;;;5.75;1.70;;;19.00;99.90;;;;;;5034788;28;20036;-45
2022/06/09 10:43:01;;;;;;;7.85;1.38;;;19.10;99.90;;;;;;5054060;28;20104;-43
2022/06/09 10:45:46;;;;;;;7.88;1.80;;;19.20;99.90;;;;;;5095986;22;20483;-46
2022/06/09 10:57:30;;;;;;;6.75;1.65;;;20.10;99.90;;;;;;5073456;28;20442;-47
2022/06/09 11:00:13;;;;;;;4.45;2.72;;;20.10;99.90;;;;;;5061705;28;20039;-45
2022/06/09 11:02:41;;;;;;;8.07;2.67;;;20.10;99.90;;;;;;5053808;28;20029;-43
2022/06/09 11:05:07;;;;;;;9.88;2.22;;;19.90;99.90;;;;;;5070772;28;20017;-48
2022/06/09 11:07:44;;;;;;;8.00;2.38;;;19.80;99.90;;;;;;5055898;28;20021;-45
2022/06/09 11:10:40;;;;;;;5.80;3.45;;;19.70;99.90;;;;;;5054052;28;20124;-42
2022/06/09 11:13:19;;;;;;;;;;;19.80;99.90;;;;;;5055264;28;20112;-45
2022/06/09 11:15:59;;;;;;;7.45;1.90;;;19.80;99.90;;;;;;5064404;28;20331;-42
2022/06/09 11:18:37;;;;;;;4.70;1.92;;;20.00;99.90;;;;;;5052657;28;20055;-47
2022/06/09 11:21:29;;;;;;;11.35;1.90;;;20.10;99.90;;;;;;5053236;28;20056;-46
2022/06/09 11:24:10;;;;;;;4.18;1.80;;;20.20;99.90;;;;;;5053289;28;20021;-45
2022/06/09 11:26:54;;;;;;;5.93;1.80;;;20.30;99.90;;;;;;5052941;28;20056;-50
2022/06/09 11:29:40;;;;;;;6.93;1.60;;;20.30;99.90;;;;;;5053682;28;20028;-49
2022/06/09 11:32:24;;;;;;;5.28;2.33;;;20.10;99.90;;;;;;5061591;28;20028;-44
2022/06/09 11:35:04;;;;;;;4.28;1.92;;;20.10;99.90;;;;;;5073120;28;20094;-47
2022/06/09 11:37:51;;;;;;;4.72;2.10;;;19.90;99.90;;;;;;5072281;28;20055;-47
2022/06/09 11:40:26;;;;;;;4.10;1.35;;;19.90;99.90;;;;;;5073498;28;20435;-47
2022/06/09 11:43:17;;;;;;;4.82;1.48;;;19.70;99.90;;;;;;5073175;28;20031;-46
2022/06/09 11:45:48;;;;;;;8.02;1.92;;;19.70;99.90;;;;;;5072936;28;20024;-47
2022/06/09 11:48:38;;;;;;;7.68;2.35;;;19.70;99.90;;;;;;5071173;28;20024;-47
2022/06/09 11:51:05;;;;;;;6.70;1.73;;;19.60;99.90;;;;;;5073006;28;20021;-42
2022/06/09 11:53:36;;;;;;;5.22;1.40;;;19.50;99.90;;;;;;5072731;28;20028;-42
2022/06/09 11:56:45;;;;;;;3.30;1.48;;;19.40;99.90;;;;;;5069585;28;20086;-52
2022/06/09 11:59:39;;;;;;;5.63;1.67;;;19.30;99.90;;;;;;5054083;28;20029;-44
2022/06/09 12:02:24;;;;;;;2.88;1.40;;;19.20;99.90;;;;;;5068699;28;20020;-46
2022/06/09 12:05:10;;;;;;;3.00;1.45;;;19.10;99.90;;;;;;5069797;28;20021;-47
2022/06/09 12:07:57;;;;;;;2.95;1.40;;;19.20;99.90;;;;;;5072033;28;20495;-46
2022/06/09 12:10:42;;;;;;;3.20;1.33;;;19.30;99.90;;;;;;5061683;28;20095;-48
2022/06/09 12:13:18;;;;;;;5.07;1.63;;;19.40;99.90;;;;;;5052426;28;20029;-45
2022/06/09 12:15:51;;;;;;;8.25;2.08;;;19.60;99.90;;;;;;5052289;28;20120;-43
2022/06/09 12:18:18;;;;;;;5.35;1.67;;;19.60;99.90;;;;;;5053649;28;20457;-50
2022/06/09 12:20:46;;;;;;;7.18;2.25;;;19.60;99.90;;;;;;5071225;28;20017;-49
2022/06/09 12:23:30;;;;;;;5.55;1.73;;;19.70;99.90;;;;;;5053037;28;20113;-48
2022/06/09 12:26:16;;;;;;;7.10;1.55;;;19.80;99.90;;;;;;5066280;28;20060;-47
2022/06/09 12:28:57;;;;;;;5.95;1.90;;;19.90;99.60;;;;;;5071080;28;20028;-44
2022/06/09 12:31:35;;;;;;;5.63;1.48;;;20.00;99.90;;;;;;5072210;28;20056;-45
2022/06/09 12:34:04;;;;;;;6.95;1.80;;;20.00;99.90;;;;;;5072076;28;20116;-47
2022/06/09 12:36:35;;;;;;;5.55;1.88;;;20.20;99.90;;;;;;5070264;28;20021;-47
2022/06/09 12:39:05;;;;;;;8.43;1.90;;;20.30;99.90;;;;;;5064997;28;20055;-48
2022/06/09 12:41:39;;;;;;;4.50;1.88;;;20.40;99.90;;;;;;5051750;28;20017;-46
2022/06/09 12:44:25;;;;;;;13.88;4.05;;;20.50;99.90;;;;;;5070331;28;20067;-42
2022/06/09 12:47:00;;;;;;;4.88;1.67;;;20.60;99.00;;;;;;5069782;28;20360;-44
2022/06/09 12:49:35;;;;;;;8.27;2.30;;;20.60;98.60;;;;;;5071813;28;20055;-45
2022/06/09 12:52:02;;;;;;;13.00;1.80;;;20.60;99.00;;;;;;5071430;28;20070;-46
2022/06/09 12:54:36;;;;;;;5.75;1.95;;;20.80;98.80;;;;;;5071452;28;20029;-46
2022/06/09 12:57:06;;;;;;;4.20;1.83;;;20.70;99.70;;;;;;5070976;28;20586;-45
2022/06/09 12:59:35;;;;;;;4.40;1.73;;;20.80;98.20;;;;;;5071689;28;20090;-41
2022/06/09 13:02:13;;;;;;;4.95;2.30;;;20.90;97.80;;;;;;5071196;28;20025;-47
2022/06/09 13:04:57;;;;;;;2.08;0.80;;;20.80;97.40;;;;;;5070983;28;20028;-47
2022/06/09 13:07:30;;;;;;;7.63;1.55;;;20.70;95.90;;;;;;5070868;28;20488;-46
2022/06/09 13:10:32;;;;;;;2.05;0.80;;;20.80;94.50;;;;;;5071574;28;20078;-47
2022/06/09 13:13:16;;;;;;;0.65;0.47;;;20.80;94.50;;;;;;5053885;28;20059;-42
2022/06/09 13:15:53;;;;;;;2.63;0.80;;;20.60;94.00;;;;;;5071415;28;20025;-46
2022/06/09 13:18:30;;;;;;;0.80;0.80;;;20.40;95.00;;;;;;5071120;28;20033;-47
2022/06/09 13:21:02;;;;;;;1.08;0.40;;;20.40;94.80;;;;;;5071445;28;20021;-48
2022/06/09 13:23:30;;;;;;;0.70;0.70;;;20.30;93.90;;;;;;5071277;28;20497;-45
2022/06/09 13:25:56;;;;;;;4.45;1.80;;;20.20;93.90;;;;;;5071226;28;20040;-49
2022/06/09 13:28:39;;;;;;;1.52;0.55;;;20.10;93.90;;;;;;5070911;28;20060;-47